Time;durP1;ratioP1;P1;durP2;ratioP2;P2;SDS_P1;SDS_P2;PMS_P1;PMS_P2;Temp;Humidity;BMP_temperature;BMP_pressure;BME280_temperature;BME280_humidity;BME280_pressure;Samples;Min_cycle;Max_cycle;Signal;HPM_P1;HPM_P2
2022/09/09 04:57:03;;;;;;;4.78;2.00;;;19.10;73.50;;;;;;6211666;23;20468;-80
2022/09/09 04:59:30;;;;;;;4.15;2.75;;;19.10;73.50;;;;;;6192710;23;20070;-78
2022/09/09 05:01:55;;;;;;;4.18;2.25;;;19.10;73.60;;;;;;6218186;23;20020;-78
2022/09/09 05:04:21;;;;;;;3.60;2.03;;;19.10;73.60;;;;;;6168172;23;20027;-78
2022/09/09 05:06:48;;;;;;;3.72;2.65;;;19.20;73.60;;;;;;6192151;23;20095;-81
2022/09/09 05:09:13;;;;;;;6.22;2.85;;;19.20;73.50;;;;;;6192550;23;20012;-77
2022/09/09 05:11:39;;;;;;;8.35;2.83;;;19.20;73.60;;;;;;6191523;23;20081;-82
2022/09/09 05:14:05;;;;;;;5.20;2.60;;;19.20;73.60;;;;;;6217679;23;20436;-81
2022/09/09 05:16:31;;;;;;;6.00;2.47;;;19.20;73.50;;;;;;6192017;23;20019;-82
2022/09/09 05:18:58;;;;;;;3.20;2.65;;;19.20;73.50;;;;;;6192460;23;20021;-82
2022/09/09 05:21:28;;;;;;;6.47;2.70;;;19.10;73.40;;;;;;6167096;23;20028;-80
2022/09/09 05:24:04;;;;;;;6.40;3.13;;;19.20;73.60;;;;;;6191910;23;20066;-83
2022/09/09 05:26:39;;;;;;;6.35;2.58;;;19.20;73.70;;;;;;6191469;23;20024;-86
2022/09/09 05:29:43;;;;;;;8.38;3.53;;;19.20;73.80;;;;;;6192009;23;20016;-86
2022/09/09 05:32:41;;;;;;;18.48;4.00;;;19.30;73.40;;;;;;6166113;23;20112;-85
2022/09/09 05:35:07;;;;;;;10.02;3.35;;;19.20;73.90;;;;;;6216990;23;20014;-84
2022/09/09 05:37:35;;;;;;;10.07;3.05;;;19.20;74.40;;;;;;6215891;23;20020;-84
2022/09/09 05:43:52;;;;;;;13.52;3.60;;;19.20;74.60;;;;;;6070677;23;20066;-80
2022/09/09 05:46:20;;;;;;;12.07;4.20;;;19.20;74.70;;;;;;6071690;23;20019;-79
2022/09/09 05:48:47;;;;;;;9.93;3.80;;;19.30;74.30;;;;;;6217294;23;20022;-77
2022/09/09 05:51:15;;;;;;;12.05;4.32;;;19.30;74.10;;;;;;6191132;23;20417;-80
2022/09/09 05:53:41;;;;;;;9.02;3.88;;;19.20;74.10;;;;;;6218295;23;20297;-78
2022/09/09 05:56:17;;;;;;;8.68;4.13;;;19.10;74.10;;;;;;6217578;23;20308;-81
2022/09/09 05:58:49;;;;;;;7.03;3.30;;;19.10;74.20;;;;;;6166534;23;20009;-80
2022/09/09 06:01:30;;;;;;;4.90;3.00;;;19.10;74.30;;;;;;6166238;23;20022;-81
2022/09/09 06:03:58;;;;;;;7.70;2.67;;;19.10;74.30;;;;;;6192503;23;20083;-81
2022/09/09 06:06:26;;;;;;;6.88;2.53;;;19.10;74.40;;;;;;6192287;23;20028;-81
2022/09/09 06:08:54;;;;;;;4.65;2.30;;;19.20;74.40;;;;;;6166722;23;20035;-80
2022/09/09 06:11:27;;;;;;;7.47;2.50;;;19.20;74.40;;;;;;6166293;23;20410;-80
2022/09/09 06:13:54;;;;;;;6.22;2.42;;;19.20;74.30;;;;;;6166821;23;20310;-81
2022/09/09 06:16:23;;;;;;;5.57;2.60;;;19.20;74.30;;;;;;6166500;23;20015;-81
2022/09/09 06:18:50;;;;;;;10.90;2.67;;;19.20;74.20;;;;;;6191051;23;20009;-80
2022/09/09 06:21:21;;;;;;;4.13;2.13;;;19.20;74.30;;;;;;6217686;23;20021;-81
2022/09/09 06:23:47;;;;;;;3.30;1.83;;;19.20;74.30;;;;;;6166509;23;20024;-81
2022/09/09 06:26:18;;;;;;;4.78;1.90;;;19.20;74.30;;;;;;6166391;23;20496;-80
2022/09/09 06:28:49;;;;;;;4.00;2.17;;;19.20;74.30;;;;;;6191094;23;20062;-81
2022/09/09 06:31:21;;;;;;;4.30;2.55;;;19.30;74.30;;;;;;6191432;23;20021;-81
2022/09/09 06:33:47;;;;;;;5.15;1.63;;;19.30;74.30;;;;;;6217737;23;20017;-80
2022/09/09 06:36:18;;;;;;;2.97;2.20;;;19.30;74.30;;;;;;6166252;23;20020;-81
2022/09/09 06:38:45;;;;;;;9.27;5.00;;;19.20;74.20;;;;;;6166725;23;20067;-77
2022/09/09 06:41:15;;;;;;;8.38;4.55;;;19.40;73.40;;;;;;6216678;23;20015;-81
2022/09/09 06:43:44;;;;;;;5.28;3.75;;;19.30;73.60;;;;;;6190682;23;20027;-81
2022/09/09 06:46:27;;;;;;;9.43;3.90;;;19.20;73.80;;;;;;6166075;23;20017;-81
2022/09/09 06:48:57;;;;;;;6.07;2.88;;;19.20;73.90;;;;;;6192839;23;20016;-82
2022/09/09 06:51:25;;;;;;;5.97;3.00;;;19.30;74.10;;;;;;6191907;23;20017;-81
2022/09/09 06:54:06;;;;;;;5.57;2.72;;;19.20;74.20;;;;;;6167651;23;20008;-81
2022/09/09 06:56:40;;;;;;;5.43;2.70;;;19.20;74.20;;;;;;6186937;23;20174;-81
2022/09/09 06:59:11;;;;;;;6.15;2.13;;;19.30;74.40;;;;;;6162523;23;20024;-81
2022/09/09 07:01:53;;;;;;;5.18;2.17;;;19.30;74.30;;;;;;6188132;23;20374;-81
2022/09/09 07:04:25;;;;;;;7.75;2.22;;;19.30;74.20;;;;;;6162653;23;20013;-81
2022/09/09 07:07:13;;;;;;;6.40;2.28;;;19.40;74.10;;;;;;6164320;23;20010;-82
2022/09/09 07:10:01;;;;;;;5.03;2.13;;;19.50;74.10;;;;;;6161554;23;20017;-81
2022/09/09 07:12:59;;;;;;;5.78;2.30;;;19.40;73.90;;;;;;6177745;23;20009;-81
2022/09/09 07:15:45;;;;;;;5.68;1.75;;;19.50;73.90;;;;;;6162942;23;20029;-81
2022/09/09 07:18:14;;;;;;;3.22;1.55;;;19.50;73.80;;;;;;6189116;23;20012;-82
2022/09/09 07:20:57;;;;;;;1.75;1.30;;;19.50;73.70;;;;;;6161994;23;20013;-82
2022/09/09 07:23:41;;;;;;;4.43;1.98;;;19.60;73.60;;;;;;6162480;23;20017;-82
2022/09/09 07:29:39;;;;;;;3.15;1.45;;;19.60;73.50;;;;;;6182422;23;20017;-82
2022/09/09 07:32:10;;;;;;;;;;;19.60;73.50;;;;;;6185964;23;20016;-82
2022/09/09 07:35:36;;;;;;;;;;;;;;;;;;;;;
2022/09/09 07:38:21;;;;;;;5.22;1.45;;;19.70;73.30;;;;;;6125057;23;20021;-82
2022/09/09 07:41:33;;;;;;;4.28;1.50;;;19.60;73.40;;;;;;6126951;23;20014;-81
2022/09/09 07:48:19;;;;;;;2.00;1.23;;;19.70;73.40;;;;;;6022534;23;20433;-83
2022/09/09 07:54:34;;;;;;;3.90;2.97;;;19.70;73.30;;;;;;6110722;23;20014;-82
2022/09/09 08:01:17;;;;;;;3.72;2.13;;;19.70;72.90;;;;;;5982925;24;20107;-82
2022/09/09 08:03:44;;;;;;;5.85;2.30;;;19.70;73.10;;;;;;5959829;24;20024;-83
2022/09/09 08:06:12;;;;;;;6.05;2.20;;;19.70;73.20;;;;;;5936928;24;20359;-82
2022/09/09 08:08:43;;;;;;;6.90;1.75;;;19.70;73.20;;;;;;6059058;23;20414;-81
2022/09/09 08:11:12;;;;;;;3.88;1.92;;;19.80;73.30;;;;;;6097877;23;20013;-82
2022/09/09 08:13:39;;;;;;;5.88;1.73;;;19.80;73.40;;;;;;6193195;23;20309;-83
2022/09/09 08:16:33;;;;;;;9.27;1.67;;;19.80;73.40;;;;;;6167782;23;20020;-82
2022/09/09 08:19:04;;;;;;;4.30;1.48;;;19.90;73.30;;;;;;6192728;23;20013;-82
2022/09/09 08:22:25;;;;;;;3.83;2.42;;;19.90;73.40;;;;;;6166917;23;20332;-84
2022/09/09 08:25:00;;;;;;;6.07;3.40;;;20.00;73.20;;;;;;6168408;23;20024;-84
2022/09/09 08:32:09;;;;;;;;;;;;;;;;;;;;;
2022/09/09 08:46:17;;;;;;;6.22;2.58;;;19.90;73.30;;;;;;6097277;23;20041;-81
2022/09/09 08:48:48;;;;;;;7.57;3.50;;;19.90;73.30;;;;;;6121045;23;20044;-80
2022/09/09 08:51:14;;;;;;;6.80;3.08;;;19.90;73.50;;;;;;6191797;23;20071;-81
2022/09/09 08:53:46;;;;;;;6.95;2.15;;;19.90;73.60;;;;;;6217767;23;20009;-81
2022/09/09 08:56:21;;;;;;;9.27;2.60;;;19.90;73.60;;;;;;6166552;23;20101;-82
2022/09/09 08:58:54;;;;;;;4.10;1.88;;;19.90;73.60;;;;;;6191763;23;20008;-81
2022/09/09 09:01:26;;;;;;;4.57;2.28;;;19.90;73.60;;;;;;6166835;23;20031;-82
2022/09/09 09:03:54;;;;;;;8.02;1.98;;;19.90;73.60;;;;;;6191655;23;20071;-81
2022/09/09 09:06:37;;;;;;;5.15;1.52;;;20.00;73.60;;;;;;6164972;23;20120;-82
2022/09/09 09:09:16;;;;;;;5.22;1.80;;;19.90;73.50;;;;;;6217356;23;20044;-80
2022/09/09 09:12:00;;;;;;;2.58;1.40;;;20.00;73.50;;;;;;6190931;23;20083;-80
2022/09/09 09:14:30;;;;;;;3.60;1.70;;;20.00;73.50;;;;;;6191503;23;20012;-80
2022/09/09 09:17:06;;;;;;;5.53;1.20;;;20.00;73.50;;;;;;6166282;23;20063;-80
2022/09/09 09:19:34;;;;;;;3.80;1.40;;;20.00;73.50;;;;;;6191530;23;20016;-80
2022/09/09 09:22:22;;;;;;;5.00;1.05;;;20.10;73.50;;;;;;6217862;23;20016;-80
2022/09/09 09:24:54;;;;;;;3.90;1.38;;;20.10;73.40;;;;;;6166662;23;20032;-80
2022/09/09 09:27:35;;;;;;;8.23;1.70;;;20.10;73.40;;;;;;6166806;23;20017;-80
2022/09/09 09:30:12;;;;;;;3.58;1.23;;;20.10;73.40;;;;;;6191337;23;20056;-80
2022/09/09 09:32:44;;;;;;;4.72;1.27;;;20.10;73.40;;;;;;6218690;23;20306;-81
2022/09/09 09:35:13;;;;;;;2.25;0.80;;;20.10;73.40;;;;;;6166000;23;20024;-77
2022/09/09 09:37:41;;;;;;;4.18;1.50;;;20.10;73.40;;;;;;6217812;23;20008;-79
2022/09/09 09:40:28;;;;;;;3.03;1.17;;;20.10;73.40;;;;;;6192188;23;20354;-80
2022/09/09 09:43:00;;;;;;;3.25;1.38;;;20.10;73.40;;;;;;6191478;23;20019;-77
2022/09/09 09:45:35;;;;;;;2.92;0.77;;;20.10;73.40;;;;;;6217452;23;20444;-78
2022/09/09 09:48:08;;;;;;;2.13;0.80;;;20.20;73.40;;;;;;6191923;23;20071;-79
2022/09/09 09:50:34;;;;;;;4.93;1.65;;;20.10;73.30;;;;;;6191927;23;20050;-74
2022/09/09 09:53:04;;;;;;;5.97;1.25;;;20.20;73.30;;;;;;6216495;23;20417;-76
2022/09/09 09:55:33;;;;;;;4.68;1.27;;;20.20;73.20;;;;;;6217571;23;20031;-83
2022/09/09 09:58:04;;;;;;;4.90;1.33;;;20.20;73.10;;;;;;6166345;23;20031;-78
2022/09/09 10:00:30;;;;;;;3.67;1.50;;;20.20;73.00;;;;;;6217614;23;20317;-79
2022/09/09 10:02:56;;;;;;;4.10;1.35;;;20.20;73.00;;;;;;6217728;23;20056;-75
2022/09/09 10:05:25;;;;;;;3.47;1.00;;;20.20;73.10;;;;;;6191761;23;20092;-77
2022/09/09 10:08:20;;;;;;;4.65;1.15;;;20.20;73.10;;;;;;6191476;23;20104;-76
2022/09/09 10:11:20;;;;;;;3.22;0.85;;;20.20;73.10;;;;;;6186234;23;20036;-74
2022/09/09 10:13:57;;;;;;;3.20;1.05;;;20.30;73.20;;;;;;6217829;23;20035;-74
2022/09/09 10:16:38;;;;;;;4.88;1.13;;;20.30;73.30;;;;;;6217664;23;20020;-75
2022/09/09 10:19:12;;;;;;;3.85;1.10;;;20.30;73.30;;;;;;6217371;23;20017;-79
2022/09/09 10:21:50;;;;;;;4.32;1.00;;;20.30;73.30;;;;;;6191099;23;20021;-75
2022/09/09 10:24:25;;;;;;;4.15;1.20;;;20.20;73.20;;;;;;6219536;23;20024;-76
2022/09/09 10:27:01;;;;;;;3.47;0.90;;;20.30;73.30;;;;;;6193453;23;20417;-74
2022/09/09 10:29:46;;;;;;;2.88;0.95;;;20.30;73.30;;;;;;6220225;23;20012;-75
2022/09/09 10:32:23;;;;;;;3.30;1.25;;;20.30;73.20;;;;;;6219943;23;20020;-77
2022/09/09 10:34:54;;;;;;;5.07;1.40;;;20.30;73.20;;;;;;6219671;23;20317;-74
2022/09/09 10:37:52;;;;;;;3.63;1.05;;;20.30;73.20;;;;;;6220265;23;20016;-76
2022/09/09 10:40:26;;;;;;;2.65;1.10;;;20.30;73.20;;;;;;6219300;23;20017;-75
2022/09/09 10:43:01;;;;;;;6.60;1.20;;;20.30;73.20;;;;;;6219600;23;20024;-78
2022/09/09 10:45:36;;;;;;;5.90;1.45;;;20.30;73.20;;;;;;6219910;23;20091;-73
2022/09/09 10:48:30;;;;;;;4.75;1.05;;;20.30;73.10;;;;;;6219013;23;20096;-76
2022/09/09 10:51:24;;;;;;;2.95;0.90;;;20.40;73.10;;;;;;6187110;23;20024;-77
2022/09/09 10:53:59;;;;;;;1.30;0.70;;;20.40;73.10;;;;;;6219234;23;20021;-78
2022/09/09 10:56:26;;;;;;;3.67;0.93;;;20.30;73.10;;;;;;6219514;23;20096;-83
2022/09/09 10:59:02;;;;;;;2.67;0.90;;;20.40;73.20;;;;;;6219280;23;20286;-78
2022/09/09 11:01:38;;;;;;;2.88;0.82;;;20.40;73.30;;;;;;6218871;23;20091;-76
2022/09/09 11:04:17;;;;;;;4.07;1.00;;;20.40;73.30;;;;;;6219390;23;20020;-76
2022/09/09 11:06:52;;;;;;;3.60;0.80;;;20.40;73.30;;;;;;6218980;23;20012;-76
2022/09/09 11:09:24;;;;;;;4.40;0.95;;;20.40;73.40;;;;;;6218984;23;20031;-76
2022/09/09 11:11:55;;;;;;;3.90;0.60;;;20.40;73.30;;;;;;6218672;23;20024;-80
2022/09/09 11:14:42;;;;;;;4.95;0.88;;;20.40;73.20;;;;;;6218321;23;20020;-80
2022/09/09 11:17:16;;;;;;;5.63;1.33;;;20.40;73.30;;;;;;6219157;23;20068;-74
2022/09/09 11:19:44;;;;;;;5.53;1.23;;;20.40;72.50;;;;;;6218670;23;20016;-78
2022/09/09 11:22:44;;;;;;;6.57;1.30;;;20.40;72.20;;;;;;6218942;23;20016;-78
2022/09/09 11:25:22;;;;;;;3.30;0.98;;;20.40;72.30;;;;;;6166787;23;20016;-79
2022/09/09 11:28:11;;;;;;;3.35;1.13;;;20.40;72.40;;;;;;6218447;23;20026;-79
2022/09/09 11:31:05;;;;;;;3.30;1.15;;;20.40;72.20;;;;;;6193042;23;20020;-75
2022/09/09 11:33:52;;;;;;;5.75;1.25;;;20.40;72.10;;;;;;6218738;23;20095;-78
2022/09/09 11:36:34;;;;;;;5.28;1.10;;;20.40;71.90;;;;;;6193567;23;20023;-78
2022/09/09 11:39:17;;;;;;;3.78;1.00;;;20.30;71.90;;;;;;6192458;23;20016;-78
2022/09/09 11:41:44;;;;;;;5.55;1.45;;;20.40;71.90;;;;;;6218620;23;20021;-80
2022/09/09 11:44:23;;;;;;;3.90;1.00;;;20.40;72.00;;;;;;6192268;23;20031;-79
2022/09/09 11:46:52;;;;;;;6.43;1.98;;;20.40;71.90;;;;;;6192488;23;20314;-78
2022/09/09 11:49:45;;;;;;;5.25;1.13;;;20.40;71.80;;;;;;6219036;23;20012;-79
2022/09/09 11:52:21;;;;;;;6.13;0.93;;;20.40;71.80;;;;;;6191980;23;20027;-81
2022/09/09 11:54:49;;;;;;;4.95;1.38;;;20.40;72.00;;;;;;6218693;23;20039;-81
2022/09/09 11:57:30;;;;;;;6.78;1.13;;;20.40;71.90;;;;;;6192552;23;20055;-80
2022/09/09 11:59:56;;;;;;;4.47;1.13;;;20.50;71.90;;;;;;6218521;23;20040;-78
2022/09/09 12:02:27;;;;;;;3.42;0.90;;;20.50;71.90;;;;;;6218658;23;20321;-77
2022/09/09 12:05:12;;;;;;;5.03;1.20;;;20.50;71.90;;;;;;6218797;23;20013;-79
2022/09/09 12:07:47;;;;;;;5.55;1.55;;;20.50;72.00;;;;;;6193149;23;20020;-79
2022/09/09 12:10:35;;;;;;;2.38;0.90;;;20.50;72.00;;;;;;6218443;23;20012;-80
2022/09/09 12:13:28;;;;;;;3.95;1.13;;;20.60;72.00;;;;;;6192451;23;20016;-77
2022/09/09 12:15:56;;;;;;;2.92;0.80;;;20.50;72.00;;;;;;6187024;23;20056;-78
2022/09/09 12:18:23;;;;;;;8.40;1.27;;;20.60;72.00;;;;;;6218693;23;20017;-79
2022/09/09 12:21:36;;;;;;;3.63;1.25;;;20.50;72.00;;;;;;6218645;23;20022;-78
2022/09/09 12:24:26;;;;;;;4.18;1.00;;;20.60;72.00;;;;;;6068754;23;20023;-80
2022/09/09 12:27:16;;;;;;;3.13;0.80;;;20.60;72.10;;;;;;6069197;23;20023;-78
2022/09/09 12:30:04;;;;;;;4.80;1.02;;;20.60;72.00;;;;;;6171318;23;20279;-79
2022/09/09 12:40:34;;;;;;;5.72;1.48;;;20.60;72.00;;;;;;6151966;23;20023;-77
2022/09/09 12:43:01;;;;;;;7.47;1.80;;;20.60;71.40;;;;;;6191415;23;20409;-80
2022/09/09 12:45:32;;;;;;;8.45;1.63;;;20.60;71.30;;;;;;6218442;23;20044;-80
2022/09/09 12:48:06;;;;;;;4.03;1.58;;;20.60;70.90;;;;;;6191907;23;20021;-78
2022/09/09 12:50:53;;;;;;;;;;;;;;;;;;;;;
2022/09/09 12:53:38;;;;;;;8.63;1.67;;;20.60;70.70;;;;;;6191153;23;20091;-80
2022/09/09 12:56:09;;;;;;;9.45;1.75;;;20.60;70.80;;;;;;6217820;23;20012;-78
2022/09/09 12:58:40;;;;;;;7.93;1.48;;;20.60;70.90;;;;;;6217554;23;20020;-79
2022/09/09 13:01:06;;;;;;;6.20;1.42;;;20.60;71.00;;;;;;6186479;23;20505;-80
2022/09/09 13:03:42;;;;;;;6.80;1.60;;;20.60;71.10;;;;;;6187886;23;20418;-79
2022/09/09 13:06:17;;;;;;;6.55;1.23;;;20.60;71.00;;;;;;6188510;23;20059;-78
2022/09/09 13:08:43;;;;;;;7.93;1.92;;;20.60;70.80;;;;;;6186666;23;20020;-79
2022/09/09 13:11:18;;;;;;;12.68;2.08;;;20.60;70.90;;;;;;6187837;23;20052;-79
2022/09/09 13:13:51;;;;;;;7.93;1.80;;;20.60;70.90;;;;;;6186679;23;20087;-79
2022/09/09 13:16:27;;;;;;;9.73;1.80;;;20.60;71.00;;;;;;6186328;23;20048;-78
2022/09/09 13:18:53;;;;;;;9.55;2.33;;;20.60;71.10;;;;;;6186954;23;20028;-78
2022/09/09 13:21:19;;;;;;;9.10;1.83;;;20.60;71.00;;;;;;6187086;23;20079;-79
2022/09/09 13:23:50;;;;;;;13.52;2.05;;;20.60;70.90;;;;;;6186103;23;20028;-78
2022/09/09 13:26:25;;;;;;;12.68;2.00;;;20.60;70.90;;;;;;6187372;23;20314;-79
2022/09/09 13:28:52;;;;;;;4.18;1.83;;;20.60;71.10;;;;;;6186897;23;20342;-78
2022/09/09 13:31:27;;;;;;;10.85;2.20;;;20.60;70.90;;;;;;6160996;23;20069;-77
2022/09/09 13:33:53;;;;;;;5.65;2.08;;;20.60;70.80;;;;;;6187914;23;20027;-78
2022/09/09 13:36:30;;;;;;;5.57;1.27;;;20.60;70.50;;;;;;6187837;23;20087;-78
2022/09/09 13:38:59;;;;;;;5.60;1.40;;;20.60;70.30;;;;;;6186666;23;20099;-78
2022/09/09 13:41:36;;;;;;;8.65;2.00;;;20.60;70.50;;;;;;6187113;23;20027;-79
2022/09/09 13:44:03;;;;;;;4.93;1.05;;;20.60;70.30;;;;;;6187169;23;20013;-80
2022/09/09 13:46:44;;;;;;;10.88;1.73;;;20.60;70.10;;;;;;6187741;23;20409;-78
2022/09/09 13:49:11;;;;;;;9.38;2.17;;;20.60;70.40;;;;;;6187381;23;20021;-78
2022/09/09 13:51:46;;;;;;;12.35;1.45;;;20.60;70.50;;;;;;6186484;23;20016;-77
2022/09/09 13:54:14;;;;;;;11.73;1.48;;;20.60;70.40;;;;;;6162051;23;20013;-78
2022/09/09 13:56:42;;;;;;;12.90;1.85;;;20.60;70.70;;;;;;6187669;23;20009;-79
2022/09/09 13:59:24;;;;;;;10.65;2.03;;;20.60;70.90;;;;;;6186100;23;20068;-78
2022/09/09 14:01:52;;;;;;;18.90;2.60;;;20.60;71.10;;;;;;6215245;23;20017;-77
2022/09/09 14:04:20;;;;;;;18.17;2.25;;;20.60;71.30;;;;;;6217646;23;20032;-80
2022/09/09 14:06:49;;;;;;;9.57;2.03;;;20.60;71.50;;;;;;6217491;23;20059;-80
2022/09/09 14:09:16;;;;;;;8.38;1.52;;;20.60;71.60;;;;;;6217829;23;20020;-78
2022/09/09 14:11:42;;;;;;;13.82;1.63;;;20.60;71.80;;;;;;6166665;23;20066;-78
2022/09/09 14:14:08;;;;;;;7.05;1.30;;;20.70;72.00;;;;;;6218388;23;20086;-78
2022/09/09 14:16:34;;;;;;;6.72;1.20;;;20.70;72.10;;;;;;6218098;23;20025;-79
2022/09/09 14:19:01;;;;;;;6.18;1.30;;;20.70;72.30;;;;;;6217720;23;20096;-80
2022/09/09 14:21:27;;;;;;;8.75;1.38;;;20.70;72.50;;;;;;6217914;23;20016;-80
2022/09/09 14:23:53;;;;;;;8.15;1.30;;;20.70;72.70;;;;;;6167035;23;20073;-81
2022/09/09 14:26:20;;;;;;;5.30;1.25;;;20.70;72.70;;;;;;6218322;23;20037;-79
2022/09/09 14:28:47;;;;;;;5.28;1.38;;;20.70;72.80;;;;;;6192530;23;20024;-79
2022/09/09 14:31:13;;;;;;;7.32;1.05;;;20.70;72.80;;;;;;6217714;23;20012;-79
2022/09/09 14:33:40;;;;;;;4.28;1.05;;;20.80;72.90;;;;;;6191615;23;20039;-80
2022/09/09 14:36:06;;;;;;;6.65;1.20;;;20.80;72.90;;;;;;6166299;23;20441;-79
2022/09/09 14:38:39;;;;;;;5.95;1.05;;;20.80;72.80;;;;;;6190954;23;20025;-79
2022/09/09 14:41:06;;;;;;;6.90;1.40;;;20.80;72.80;;;;;;6191579;23;20015;-79
2022/09/09 14:43:39;;;;;;;8.07;1.40;;;20.80;72.80;;;;;;6191509;23;20024;-78
2022/09/09 14:46:08;;;;;;;6.05;0.90;;;20.80;72.90;;;;;;6191038;23;20016;-80
2022/09/09 14:48:40;;;;;;;4.55;1.13;;;20.80;73.00;;;;;;6191106;23;20009;-79
2022/09/09 14:51:23;;;;;;;15.98;2.35;;;20.80;73.00;;;;;;6217452;23;20158;-77
2022/09/09 14:53:55;;;;;;;4.75;1.45;;;20.80;72.90;;;;;;6217216;23;20016;-80
2022/09/09 14:56:26;;;;;;;5.45;0.85;;;20.80;73.00;;;;;;6216946;23;20016;-79
2022/09/09 14:59:00;;;;;;;5.45;1.50;;;20.80;73.00;;;;;;6217379;23;20043;-79
2022/09/09 15:01:37;;;;;;;4.38;1.08;;;20.80;73.50;;;;;;6216735;23;20020;-81
2022/09/09 15:04:14;;;;;;;4.57;0.88;;;20.80;73.30;;;;;;6165993;23;20044;-83
2022/09/09 15:06:48;;;;;;;7.88;1.83;;;20.80;73.20;;;;;;6190271;23;20015;-84
2022/09/09 15:09:22;;;;;;;4.75;1.45;;;20.80;73.80;;;;;;6192114;23;20476;-81
2022/09/09 15:11:48;;;;;;;10.05;4.35;;;20.80;73.60;;;;;;6192491;23;20020;-80
2022/09/09 15:14:26;;;;;;;8.25;2.80;;;20.80;74.20;;;;;;6219099;23;20306;-80
2022/09/09 15:16:52;;;;;;;5.95;2.80;;;20.80;74.40;;;;;;6167604;23;20017;-77
2022/09/09 15:19:18;;;;;;;13.40;5.15;;;20.90;74.20;;;;;;6219067;23;20020;-80
2022/09/09 15:21:47;;;;;;;14.23;6.53;;;20.90;75.20;;;;;;6166217;23;20420;-77
2022/09/09 15:24:13;;;;;;;12.05;4.57;;;20.90;76.20;;;;;;6192365;23;20102;-77
2022/09/09 15:26:39;;;;;;;16.05;7.00;;;20.90;76.20;;;;;;6192928;23;20016;-81
2022/09/09 15:29:05;;;;;;;14.85;5.60;;;20.90;76.80;;;;;;6192484;23;20020;-77
2022/09/09 15:31:37;;;;;;;10.57;4.13;;;21.00;77.20;;;;;;6218574;23;20019;-81
2022/09/09 15:34:06;;;;;;;8.55;3.55;;;21.00;77.00;;;;;;6192971;23;20012;-80
2022/09/09 15:36:38;;;;;;;11.13;2.60;;;20.90;76.60;;;;;;6192676;23;20479;-79
2022/09/09 15:39:07;;;;;;;5.57;2.28;;;20.90;76.10;;;;;;6167922;23;20013;-79
2022/09/09 15:41:35;;;;;;;5.85;2.53;;;20.90;75.90;;;;;;6168414;23;20020;-78
2022/09/09 15:44:01;;;;;;;10.10;3.13;;;20.80;75.70;;;;;;6219050;23;20012;-80
2022/09/09 15:46:37;;;;;;;9.57;2.40;;;20.70;75.50;;;;;;6219017;23;20341;-79
2022/09/09 15:49:13;;;;;;;11.88;2.67;;;20.70;75.40;;;;;;6218721;23;20028;-81
2022/09/09 15:51:42;;;;;;;12.18;2.55;;;20.70;75.30;;;;;;6192024;23;20038;-79
2022/09/09 15:54:09;;;;;;;14.02;3.00;;;20.70;75.30;;;;;;6218701;23;20020;-80
2022/09/09 15:56:34;;;;;;;7.75;2.47;;;20.70;75.40;;;;;;6168897;23;20402;-80
2022/09/09 16:00:14;;;;;;;11.07;2.90;;;20.60;75.20;;;;;;6191729;23;20032;-82
2022/09/09 16:06:50;;;;;;;10.02;3.03;;;20.60;75.20;;;;;;6116770;23;19912;-82
2022/09/09 16:09:27;;;;;;;9.85;3.05;;;20.60;75.20;;;;;;6104708;23;20025;-81
2022/09/09 16:12:19;;;;;;;11.82;2.65;;;20.60;75.40;;;;;;6078565;23;20017;-81
2022/09/09 16:14:45;;;;;;;10.57;2.92;;;20.60;75.50;;;;;;6083012;23;20088;-83
2022/09/09 16:17:20;;;;;;;7.18;3.00;;;20.60;75.50;;;;;;6102462;23;20082;-81
2022/09/09 16:19:46;;;;;;;6.43;2.92;;;20.60;75.50;;;;;;6108905;23;20502;-78
2022/09/09 16:22:12;;;;;;;7.50;2.20;;;20.60;75.60;;;;;;6191912;23;20017;-79
2022/09/09 16:24:38;;;;;;;4.80;2.30;;;20.60;75.50;;;;;;6191933;23;20028;-81
2022/09/09 16:27:04;;;;;;;10.63;2.75;;;20.60;75.50;;;;;;6192668;23;20016;-80
2022/09/09 16:29:29;;;;;;;7.10;2.55;;;20.60;75.50;;;;;;6218568;23;20102;-81
2022/09/09 16:31:55;;;;;;;6.95;1.70;;;20.60;75.50;;;;;;6193263;23;20020;-80
2022/09/09 16:34:21;;;;;;;6.38;1.92;;;20.60;75.40;;;;;;6218581;23;20012;-81
2022/09/09 16:36:48;;;;;;;4.95;1.92;;;20.60;75.40;;;;;;6167568;23;20062;-80
2022/09/09 16:39:17;;;;;;;5.20;1.73;;;20.60;75.40;;;;;;6217596;23;20487;-80
2022/09/09 16:41:44;;;;;;;4.97;1.38;;;20.60;75.60;;;;;;6167600;23;20031;-81
2022/09/09 16:44:12;;;;;;;3.90;1.17;;;20.60;75.60;;;;;;6217985;23;20329;-81
2022/09/09 16:46:40;;;;;;;7.40;2.08;;;20.60;75.60;;;;;;6166824;23;20020;-78
2022/09/09 16:49:08;;;;;;;9.63;2.53;;;20.70;75.60;;;;;;6218633;23;20349;-79
2022/09/09 16:51:37;;;;;;;7.20;2.10;;;20.70;75.30;;;;;;6217238;23;20279;-79
2022/09/09 16:54:06;;;;;;;9.32;2.00;;;20.70;75.30;;;;;;6190906;23;20020;-80
2022/09/09 16:56:34;;;;;;;13.85;2.70;;;20.70;75.30;;;;;;6166515;23;20082;-80
2022/09/09 16:59:02;;;;;;;7.35;2.47;;;20.60;75.40;;;;;;6191066;23;20089;-81
2022/09/09 17:01:32;;;;;;;7.70;2.17;;;20.60;75.50;;;;;;6191602;23;20008;-80
2022/09/09 17:04:03;;;;;;;18.13;3.40;;;20.60;75.60;;;;;;6191679;23;20047;-81
2022/09/09 17:06:30;;;;;;;11.88;2.70;;;20.60;75.80;;;;;;6167520;23;20013;-79
2022/09/09 17:09:03;;;;;;;10.90;2.63;;;20.60;76.00;;;;;;6166839;23;20092;-81
2022/09/09 17:11:29;;;;;;;9.35;2.42;;;20.60;76.10;;;;;;6191213;23;20016;-82
2022/09/09 17:13:57;;;;;;;8.57;2.75;;;20.60;76.20;;;;;;6218055;23;20021;-80
2022/09/09 17:16:27;;;;;;;10.65;2.72;;;20.60;76.30;;;;;;6218471;23;20070;-80
2022/09/09 17:18:53;;;;;;;9.05;2.42;;;20.60;76.30;;;;;;6218408;23;20020;-80
2022/09/09 17:21:21;;;;;;;13.80;2.38;;;20.60;76.20;;;;;;6191908;23;20424;-78
2022/09/09 17:23:47;;;;;;;8.95;2.25;;;20.60;76.20;;;;;;6217860;23;20096;-81
2022/09/09 17:26:15;;;;;;;17.60;3.17;;;20.60;76.20;;;;;;6192682;23;20016;-78
2022/09/09 17:28:43;;;;;;;10.95;2.35;;;20.70;76.20;;;;;;6219202;23;20017;-80
2022/09/09 17:31:10;;;;;;;13.23;2.05;;;20.70;76.10;;;;;;6218073;23;20095;-78
2022/09/09 17:33:39;;;;;;;12.02;1.95;;;20.70;76.10;;;;;;6217589;23;20020;-78
2022/09/09 17:36:12;;;;;;;7.53;1.70;;;20.70;76.10;;;;;;6217846;23;20163;-81
2022/09/09 17:38:38;;;;;;;12.20;1.90;;;20.70;76.10;;;;;;6217982;23;20117;-80
2022/09/09 17:41:13;;;;;;;11.90;2.03;;;20.70;76.10;;;;;;6217915;23;20024;-79
2022/09/09 17:43:40;;;;;;;16.40;2.55;;;20.70;76.10;;;;;;6218153;23;20016;-80
2022/09/09 17:46:33;;;;;;;18.30;2.63;;;20.80;76.10;;;;;;6218372;23;20024;-80
2022/09/09 17:49:02;;;;;;;9.25;2.13;;;20.80;76.00;;;;;;6203202;23;20017;-79
2022/09/09 17:51:32;;;;;;;21.85;2.22;;;20.80;76.10;;;;;;6191552;23;20016;-79
2022/09/09 17:54:04;;;;;;;11.13;2.25;;;20.80;76.00;;;;;;6166429;23;20047;-80
2022/09/09 17:56:32;;;;;;;8.57;2.40;;;20.80;75.90;;;;;;6217640;23;20310;-80
2022/09/09 17:58:59;;;;;;;7.97;2.00;;;20.80;75.90;;;;;;6191604;23;20025;-79
2022/09/09 18:01:27;;;;;;;9.60;2.13;;;20.80;75.90;;;;;;6190969;23;20031;-80
2022/09/09 18:03:58;;;;;;;8.85;1.75;;;20.80;75.90;;;;;;6217403;23;20413;-79
2022/09/09 18:06:32;;;;;;;6.78;1.55;;;20.80;75.80;;;;;;6218385;23;20309;-80
2022/09/09 18:09:03;;;;;;;9.13;1.50;;;20.80;75.80;;;;;;6218464;23;20016;-80
2022/09/09 18:11:32;;;;;;;9.65;1.73;;;20.80;75.70;;;;;;6217616;23;20020;-80
2022/09/09 18:14:00;;;;;;;7.22;1.90;;;20.80;75.70;;;;;;6166557;23;20032;-80
2022/09/09 18:16:28;;;;;;;11.32;2.22;;;20.80;75.70;;;;;;6217688;23;20017;-82
2022/09/09 18:18:57;;;;;;;7.85;1.77;;;20.80;75.60;;;;;;6218082;23;20017;-82
2022/09/09 18:21:25;;;;;;;6.85;1.42;;;20.80;75.60;;;;;;6217659;23;20020;-80
2022/09/09 18:23:51;;;;;;;7.30;1.80;;;20.80;75.60;;;;;;6218051;23;20106;-81
2022/09/09 18:26:20;;;;;;;7.63;1.98;;;20.80;75.50;;;;;;6217414;23;20348;-79
2022/09/09 18:28:55;;;;;;;6.00;1.30;;;20.80;75.50;;;;;;6192445;23;20025;-81
2022/09/09 18:31:24;;;;;;;5.55;1.60;;;20.80;75.40;;;;;;6191969;23;20095;-82
2022/09/09 18:33:52;;;;;;;5.70;1.67;;;20.80;75.50;;;;;;6217522;23;20326;-79
2022/09/09 18:36:26;;;;;;;8.07;1.08;;;20.80;76.00;;;;;;6217202;23;20522;-77
2022/09/09 18:38:55;;;;;;;5.07;1.40;;;20.80;75.30;;;;;;6191351;23;20012;-79
2022/09/09 18:41:27;;;;;;;6.97;1.40;;;20.80;75.40;;;;;;6166323;23;20059;-79
2022/09/09 18:43:56;;;;;;;7.22;1.55;;;20.80;75.30;;;;;;6192140;23;20024;-79
2022/09/09 18:46:24;;;;;;;4.38;1.10;;;20.80;75.30;;;;;;6193778;23;20345;-78
2022/09/09 18:48:50;;;;;;;5.70;1.10;;;20.80;75.30;;;;;;6219748;23;20009;-79
2022/09/09 18:51:24;;;;;;;7.00;0.98;;;20.80;75.30;;;;;;6193249;23;20023;-79
2022/09/09 18:53:50;;;;;;;;;;;20.80;75.30;;;;;;6219901;23;20031;-79
2022/09/09 18:56:16;;;;;;;5.72;1.20;;;20.80;75.20;;;;;;6193325;23;20046;-81
2022/09/09 18:58:43;;;;;;;10.35;1.30;;;20.80;75.40;;;;;;6219363;23;20024;-80
2022/09/09 19:01:13;;;;;;;5.10;1.15;;;20.80;75.30;;;;;;6218747;23;20035;-79
2022/09/09 19:03:40;;;;;;;6.93;1.30;;;20.80;75.30;;;;;;6219130;23;20092;-80